createdAt,value
2019-05-17T00:00:38.411Z,11.25
2019-05-17T00:03:10.636Z,11.44
2019-05-17T00:05:42.462Z,11.40
2019-05-17T00:08:16.501Z,11.34
2019-05-17T00:10:47.639Z,11.40
2019-05-17T00:13:19.394Z,11.40
2019-05-17T00:15:51.212Z,11.25
2019-05-17T00:18:22.883Z,11.41
2019-05-17T00:20:56.998Z,11.38
2019-05-17T00:23:28.165Z,11.43
2019-05-17T00:26:00.133Z,11.49
2019-05-17T00:28:31.722Z,11.51
2019-05-17T00:31:03.553Z,11.54
2019-05-17T00:33:36.694Z,11.53
2019-05-17T00:36:09.807Z,11.46
2019-05-17T00:38:48.412Z,11.34
2019-05-17T00:41:17.481Z,11.25
2019-05-17T00:43:47.206Z,11.12
2019-05-17T00:46:18.805Z,11.20
2019-05-17T00:48:50.668Z,11.33
2019-05-17T00:51:22.462Z,11.31
2019-05-17T00:53:56.248Z,11.09
2019-05-17T00:56:27.996Z,11.25
2019-05-17T00:58:59.794Z,11.27
2019-05-17T01:01:31.379Z,11.34
2019-05-17T01:04:02.956Z,11.28
2019-05-17T01:06:34.791Z,11.39
2019-05-17T01:09:07.965Z,11.48
2019-05-17T01:11:38.771Z,11.43
2019-05-17T01:14:10.555Z,11.40
2019-05-17T01:16:42.863Z,11.31
2019-05-17T01:19:16.415Z,11.34
2019-05-17T01:21:47.995Z,11.33
2019-05-17T01:24:19.846Z,11.30
2019-05-17T01:26:51.637Z,11.38
2019-05-17T01:29:23.452Z,11.28
2019-05-17T01:31:57.072Z,11.24
2019-05-17T01:34:28.954Z,11.29
2019-05-17T01:37:00.950Z,11.28
2019-05-17T01:39:33.617Z,11.26
2019-05-17T01:42:06.843Z,11.24
2019-05-17T01:44:37.565Z,11.22
2019-05-17T01:47:09.141Z,11.34
2019-05-17T01:49:40.755Z,11.33
2019-05-17T01:52:12.456Z,11.31
2019-05-17T01:54:44.275Z,11.31
2019-05-17T01:57:16.825Z,11.36
2019-05-17T01:59:48.760Z,11.23
2019-05-17T02:02:26.994Z,11.40
2019-05-17T02:04:59.226Z,11.27
2019-05-17T02:07:30.669Z,11.14
2019-05-17T02:10:02.520Z,11.13
2019-05-17T02:12:34.224Z,11.12
2019-05-17T02:15:06.998Z,11.23
2019-05-17T02:17:38.631Z,11.19
2019-05-17T02:20:11.348Z,11.15
2019-05-17T02:22:47.466Z,11.08
2019-05-17T02:25:19.813Z,11.07
2019-05-17T02:27:52.322Z,11.15
2019-05-17T02:30:24.280Z,11.11
2019-05-17T02:32:56.269Z,11.13
2019-05-17T02:35:29.580Z,11.13
2019-05-17T02:38:02.815Z,11.10
2019-05-17T02:40:34.855Z,10.98
2019-05-17T02:43:06.858Z,10.97
2019-05-17T02:45:39.050Z,10.99
2019-05-17T02:48:13.449Z,10.98
2019-05-17T02:50:48.099Z,10.96
2019-05-17T02:53:18.524Z,11.00
2019-05-17T02:55:53.708Z,10.96
2019-05-17T02:58:23.931Z,10.94
2019-05-17T03:00:55.830Z,10.91
2019-05-17T03:03:28.041Z,10.93
2019-05-17T03:06:02.870Z,10.92
2019-05-17T03:08:34.532Z,10.89
2019-05-17T03:11:06.509Z,10.90
2019-05-17T03:13:38.258Z,10.89
2019-05-17T03:16:09.698Z,10.83
2019-05-17T03:18:43.871Z,10.84
2019-05-17T03:21:15.062Z,10.74
2019-05-17T03:23:46.977Z,10.97
2019-05-17T03:26:18.705Z,10.78
2019-05-17T03:28:53.559Z,10.81
2019-05-17T03:31:26.251Z,10.86
2019-05-17T03:33:57.966Z,10.87
2019-05-17T03:36:35.506Z,10.94
2019-05-17T03:39:03.421Z,10.96
2019-05-17T03:41:35.187Z,10.99
2019-05-17T03:44:07.275Z,10.83
2019-05-17T03:46:42.347Z,10.88
2019-05-17T03:49:13.280Z,10.88
2019-05-17T03:51:45.099Z,10.96
2019-05-17T03:54:22.414Z,11.00
2019-05-17T03:56:54.104Z,11.01
2019-05-17T03:59:26.030Z,10.90
2019-05-17T04:01:57.644Z,10.90
2019-05-17T04:04:32.901Z,10.89
2019-05-17T04:07:03.385Z,10.97
2019-05-17T04:09:37.770Z,11.01
2019-05-17T04:12:08.841Z,10.95
2019-05-17T04:14:42.871Z,11.09
2019-05-17T04:17:14.335Z,11.09
2019-05-17T04:19:47.271Z,11.10
2019-05-17T04:22:19.118Z,11.11
2019-05-17T04:24:52.548Z,11.06
2019-05-17T04:27:23.102Z,11.08
2019-05-17T04:29:55.038Z,11.14
2019-05-17T04:32:26.949Z,11.11
2019-05-17T04:34:58.692Z,11.32
2019-05-17T04:37:33.359Z,11.40
2019-05-17T04:40:03.996Z,11.36
2019-05-17T04:42:35.827Z,11.44
2019-05-17T04:45:07.720Z,11.48
2019-05-17T04:47:39.431Z,11.52
2019-05-17T04:50:13.522Z,11.49
2019-05-17T04:52:45.576Z,11.59
2019-05-17T04:55:17.653Z,11.76
2019-05-17T04:57:52.861Z,11.81
2019-05-17T05:00:23.465Z,11.91
2019-05-17T05:02:55.396Z,11.81
2019-05-17T05:05:26.907Z,11.69
2019-05-17T05:07:58.341Z,11.81
2019-05-17T05:10:32.939Z,11.76
2019-05-17T05:13:03.672Z,11.70
2019-05-17T05:15:44.019Z,11.64
2019-05-17T05:18:15.497Z,11.68
2019-05-17T05:20:47.574Z,11.71
2019-05-17T05:23:19.186Z,11.71
2019-05-17T05:25:52.254Z,11.68
2019-05-17T05:28:22.972Z,11.62
2019-05-17T05:30:54.592Z,11.83
2019-05-17T05:33:26.237Z,11.68
2019-05-17T05:35:58.156Z,11.72
2019-05-17T05:38:31.803Z,11.85
2019-05-17T05:41:02.127Z,11.91
2019-05-17T05:43:33.874Z,11.87
2019-05-17T05:46:05.837Z,11.87
2019-05-17T05:48:37.716Z,11.97
2019-05-17T05:51:09.501Z,11.96
2019-05-17T05:53:41.886Z,12.14
2019-05-17T05:56:13.753Z,12.18
2019-05-17T05:58:46.879Z,12.24
2019-05-17T06:01:18.693Z,12.34
2019-05-17T06:03:52.019Z,12.34
2019-05-17T06:06:24.166Z,12.50
2019-05-17T06:08:55.767Z,12.60
2019-05-17T06:11:27.513Z,12.83
2019-05-17T06:14:01.437Z,12.99
2019-05-17T06:16:32.150Z,13.15
2019-05-17T06:19:04.120Z,13.30
2019-05-17T06:21:36.348Z,13.40
2019-05-17T06:24:08.270Z,13.58
2019-05-17T06:26:42.179Z,13.86
2019-05-17T06:29:13.590Z,14.15
2019-05-17T06:31:45.223Z,14.33
2019-05-17T06:34:16.872Z,14.47
2019-05-17T06:36:48.666Z,14.62
2019-05-17T06:39:22.385Z,14.89
2019-05-17T06:41:53.743Z,15.12
2019-05-17T06:44:25.702Z,15.00
2019-05-17T06:46:57.373Z,14.96
2019-05-17T06:49:29.019Z,14.90
2019-05-17T06:52:02.402Z,14.87
2019-05-17T06:54:34.258Z,15.16
2019-05-17T06:57:05.920Z,15.36
2019-05-17T06:59:37.365Z,15.57
2019-05-17T07:02:10.400Z,15.79
2019-05-17T07:04:42.423Z,15.83
2019-05-17T07:07:30.633Z,15.73
2019-05-17T07:10:02.848Z,15.52
2019-05-17T07:12:34.746Z,15.95
2019-05-17T07:15:07.473Z,15.91
2019-05-17T07:17:42.291Z,15.68
2019-05-17T07:20:14.015Z,15.73
2019-05-17T07:22:45.835Z,16.04
2019-05-17T07:25:19.769Z,16.16
2019-05-17T07:27:52.767Z,16.09
2019-05-17T07:30:25.339Z,16.11
2019-05-17T07:32:56.720Z,15.92
2019-05-17T07:35:30.014Z,15.92
2019-05-17T07:38:02.359Z,15.98
2019-05-17T07:40:34.001Z,16.06
2019-05-17T07:43:10.836Z,16.29
2019-05-17T07:45:40.409Z,16.45
2019-05-17T07:48:12.508Z,16.42
2019-05-17T07:50:44.001Z,16.76
2019-05-17T07:53:15.960Z,16.79
2019-05-17T07:55:47.304Z,16.69
2019-05-17T07:58:21.403Z,16.32
2019-05-17T08:00:52.749Z,16.55
2019-05-17T08:03:25.106Z,16.82
2019-05-17T08:05:56.882Z,17.26
2019-05-17T08:08:31.063Z,17.36
2019-05-17T08:11:02.939Z,17.51
2019-05-17T08:13:34.590Z,17.13
2019-05-17T08:16:06.357Z,17.12
2019-05-17T08:18:40.090Z,17.08
2019-05-17T08:21:11.690Z,16.99
2019-05-17T08:23:43.798Z,17.15
2019-05-17T08:26:15.678Z,17.05
2019-05-17T08:28:49.762Z,17.28
2019-05-17T08:31:20.859Z,17.19
2019-05-17T08:33:52.530Z,17.35
2019-05-17T08:36:24.269Z,17.63
2019-05-17T08:38:56.337Z,17.75
2019-05-17T08:41:30.834Z,17.85
2019-05-17T08:44:01.764Z,18.03
2019-05-17T08:46:33.459Z,18.43
2019-05-17T08:49:05.294Z,18.62
2019-05-17T08:51:39.503Z,18.96
2019-05-17T08:54:10.544Z,18.80
2019-05-17T08:56:42.675Z,19.11
2019-05-17T08:59:14.247Z,19.05
2019-05-17T09:01:46.039Z,19.19
2019-05-17T09:04:17.516Z,19.29
2019-05-17T09:06:50.496Z,19.59
2019-05-17T09:09:22.110Z,19.76
2019-05-17T09:11:54.353Z,19.27
2019-05-17T09:14:26.330Z,18.90
2019-05-17T09:17:00.402Z,19.18
2019-05-17T09:19:32.346Z,19.53
2019-05-17T09:22:04.122Z,19.72
2019-05-17T09:24:35.805Z,20.04
2019-05-17T09:27:10.002Z,20.14
2019-05-17T09:29:41.088Z,19.93
2019-05-17T09:32:12.899Z,19.61
2019-05-17T09:34:44.500Z,20.03
2019-05-17T09:37:19.062Z,20.28
2019-05-17T09:39:49.397Z,20.10
2019-05-17T09:42:21.106Z,20.44
2019-05-17T09:44:52.910Z,20.66
2019-05-17T09:47:24.719Z,20.70
2019-05-17T09:49:56.381Z,19.84
2019-05-17T09:52:29.347Z,20.15
2019-05-17T09:55:01.178Z,20.29
2019-05-17T09:57:33.373Z,19.97
2019-05-17T10:00:05.695Z,19.61
2019-05-17T10:02:40.162Z,19.44
2019-05-17T10:05:12.573Z,19.96
2019-05-17T10:07:44.414Z,20.11
2019-05-17T10:10:16.359Z,20.28
2019-05-17T10:12:49.550Z,20.70
2019-05-17T10:15:21.455Z,21.02
2019-05-17T10:17:53.411Z,21.02
2019-05-17T10:20:25.391Z,21.47
2019-05-17T10:22:59.510Z,21.69
2019-05-17T10:25:31.160Z,21.19
2019-05-17T10:28:03.265Z,20.73
2019-05-17T10:30:35.145Z,20.81
2019-05-17T10:33:09.558Z,20.27
2019-05-17T10:35:41.003Z,20.36
2019-05-17T10:38:12.907Z,20.57
2019-05-17T10:40:44.757Z,20.44
2019-05-17T10:43:16.799Z,20.47
2019-05-17T10:45:48.704Z,20.92
2019-05-17T10:48:21.225Z,21.36
2019-05-17T10:50:53.193Z,21.55
2019-05-17T10:53:24.981Z,21.89
2019-05-17T10:55:56.774Z,22.31
2019-05-17T10:58:29.819Z,22.45
2019-05-17T11:01:01.368Z,22.67
2019-05-17T11:03:33.996Z,22.48
2019-05-17T11:06:06.064Z,22.02
2019-05-17T11:08:37.738Z,22.17
2019-05-17T11:11:10.185Z,22.44
2019-05-17T11:13:41.856Z,22.59
2019-05-17T11:16:13.595Z,22.98
2019-05-17T11:18:46.507Z,22.36
2019-05-17T11:21:18.643Z,21.71
2019-05-17T11:23:50.384Z,21.60
2019-05-17T11:26:22.061Z,21.42
2019-05-17T11:28:54.104Z,21.94
2019-05-17T11:31:25.735Z,21.78
2019-05-17T11:33:57.765Z,21.43
2019-05-17T11:36:29.321Z,21.74
2019-05-17T11:39:00.963Z,22.38
2019-05-17T11:41:34.062Z,22.77
2019-05-17T11:44:05.979Z,22.69
2019-05-17T11:46:37.650Z,22.57
2019-05-17T11:49:09.236Z,22.18
2019-05-17T11:51:40.900Z,22.08
2019-05-17T11:54:12.450Z,21.73
2019-05-17T11:56:44.389Z,21.76
2019-05-17T11:59:16.002Z,21.62
2019-05-17T12:01:47.526Z,21.51
2019-05-17T12:04:18.886Z,21.54
2019-05-17T12:06:51.833Z,21.68
2019-05-17T12:09:36.542Z,21.56
2019-05-17T12:11:57.439Z,21.47
2019-05-17T12:14:29.237Z,21.66
2019-05-17T12:17:01.252Z,21.96
2019-05-17T12:19:32.972Z,22.13
2019-05-17T12:22:04.784Z,22.35
2019-05-17T12:24:36.609Z,22.51
2019-05-17T12:27:08.528Z,22.46
2019-05-17T12:29:40.062Z,23.64
2019-05-17T12:32:16.540Z,24.30
2019-05-17T12:34:44.884Z,24.03
2019-05-17T12:37:16.609Z,23.39
2019-05-17T12:39:51.282Z,23.65
2019-05-17T12:42:23.279Z,23.41
2019-05-17T12:44:54.836Z,24.07
2019-05-17T12:47:26.685Z,25.00
2019-05-17T12:49:58.415Z,25.69
2019-05-17T12:52:30.207Z,25.53
2019-05-17T12:55:02.058Z,25.08
2019-05-17T12:57:33.891Z,25.23
2019-05-17T13:00:06.132Z,25.34
2019-05-17T13:02:38.172Z,24.71
2019-05-17T13:05:10.374Z,25.50
2019-05-17T13:07:43.258Z,26.56
2019-05-17T13:10:14.914Z,27.15
2019-05-17T13:12:47.825Z,27.01
2019-05-17T13:15:19.704Z,27.17
2019-05-17T13:17:51.338Z,27.38
2019-05-17T13:20:23.181Z,27.98
2019-05-17T13:22:55.251Z,28.78
2019-05-17T13:25:27.052Z,28.48
2019-05-17T13:27:58.431Z,28.86
2019-05-17T13:30:30.442Z,29.08
2019-05-17T13:33:02.030Z,29.26
2019-05-17T13:35:33.738Z,28.97
2019-05-17T13:38:05.539Z,29.39
2019-05-17T13:40:39.827Z,30.19
2019-05-17T13:43:11.127Z,29.84
2019-05-17T13:45:43.946Z,30.43
2019-05-17T13:48:16.279Z,30.92
2019-05-17T13:50:51.621Z,30.61
2019-05-17T13:53:21.348Z,30.47
2019-05-17T13:55:52.881Z,30.08
2019-05-17T13:58:24.652Z,28.82
2019-05-17T14:00:56.338Z,27.18
2019-05-17T14:03:28.174Z,25.36
2019-05-17T14:06:00.705Z,24.54
2019-05-17T14:08:33.653Z,22.94
2019-05-17T14:11:05.427Z,22.27
2019-05-17T14:13:37.091Z,21.72
2019-05-17T14:16:08.948Z,21.32
2019-05-17T14:18:40.708Z,20.78
2019-05-17T14:21:12.344Z,20.72
2019-05-17T14:23:44.211Z,20.43
2019-05-17T14:26:15.955Z,20.33
2019-05-17T14:28:47.499Z,20.40
2019-05-17T14:31:19.286Z,20.11
2019-05-17T14:33:51.629Z,20.06
2019-05-17T14:36:23.279Z,19.79
2019-05-17T14:38:54.959Z,19.80
2019-05-17T14:41:26.594Z,19.83
2019-05-17T14:43:58.446Z,20.04
2019-05-17T14:46:30.158Z,20.43
2019-05-17T14:49:01.814Z,20.31
2019-05-17T14:51:33.384Z,20.08
2019-05-17T14:54:05.415Z,20.00
2019-05-17T14:56:37.268Z,20.36
2019-05-17T14:59:09.104Z,21.26
2019-05-17T15:01:41.036Z,21.36
2019-05-17T15:04:12.755Z,21.37
2019-05-17T15:06:44.330Z,21.43
2019-05-17T15:09:17.039Z,21.17
2019-05-17T15:11:48.625Z,20.64
2019-05-17T15:14:20.322Z,19.93
2019-05-17T15:16:52.700Z,19.92
2019-05-17T15:19:24.479Z,19.58
2019-05-17T15:21:57.223Z,19.22
2019-05-17T15:24:28.836Z,19.22
2019-05-17T15:27:05.427Z,19.19
2019-05-17T15:29:33.429Z,19.03
2019-05-17T15:32:05.183Z,18.76
2019-05-17T15:34:36.996Z,18.63
2019-05-17T15:37:10.045Z,18.35
2019-05-17T15:39:41.663Z,18.09
2019-05-17T15:42:13.408Z,18.03
2019-05-17T15:44:45.338Z,17.95
2019-05-17T15:47:18.316Z,17.73
2019-05-17T15:49:49.914Z,17.51
2019-05-17T15:52:21.535Z,17.46
2019-05-17T15:54:53.436Z,17.37
2019-05-17T15:57:25.344Z,17.36
2019-05-17T15:59:57.075Z,17.42
2019-05-17T16:02:28.869Z,17.23
2019-05-17T16:05:00.556Z,17.25
2019-05-17T16:07:32.707Z,17.30
2019-05-17T16:10:04.495Z,17.35
2019-05-17T16:12:36.170Z,17.27
2019-05-17T16:15:08.793Z,17.37
2019-05-17T16:17:40.691Z,17.44
2019-05-17T16:20:16.812Z,17.48
2019-05-17T16:22:47.484Z,17.27
2019-05-17T16:25:20.352Z,16.97
2019-05-17T16:27:52.079Z,16.97
2019-05-17T16:30:23.830Z,17.09
2019-05-17T16:32:55.670Z,17.37
2019-05-17T16:35:27.361Z,17.32
2019-05-17T16:37:58.968Z,17.05
2019-05-17T16:40:30.675Z,17.21
2019-05-17T16:43:16.770Z,17.27
2019-05-17T16:45:35.599Z,17.27
2019-05-17T16:48:07.114Z,17.26
2019-05-17T16:50:38.990Z,17.19
2019-05-17T16:53:10.872Z,17.21
2019-05-17T16:55:42.680Z,16.84
2019-05-17T16:58:14.324Z,17.02
2019-05-17T17:00:47.316Z,16.93
2019-05-17T17:03:19.314Z,17.04
2019-05-17T17:05:51.015Z,16.95
2019-05-17T17:08:22.589Z,16.90
2019-05-17T17:10:54.288Z,16.69
2019-05-17T17:13:33.067Z,16.67
2019-05-17T17:15:59.295Z,16.72
2019-05-17T17:18:30.998Z,16.50
2019-05-17T17:21:02.905Z,16.46
2019-05-17T17:23:34.572Z,16.35
2019-05-17T17:26:06.455Z,16.41
2019-05-17T17:28:38.308Z,16.11
2019-05-17T17:31:13.525Z,15.93
2019-05-17T17:33:45.300Z,16.02
2019-05-17T17:36:19.424Z,16.15
2019-05-17T17:38:50.662Z,16.14
2019-05-17T17:41:22.373Z,16.10
2019-05-17T17:43:58.528Z,16.14
2019-05-17T17:46:27.468Z,16.02
2019-05-17T17:48:59.232Z,15.98
2019-05-17T17:51:31.090Z,16.01
2019-05-17T17:54:02.793Z,15.93
2019-05-17T17:56:34.630Z,15.96
2019-05-17T17:59:06.688Z,15.94
2019-05-17T18:01:38.251Z,15.98
2019-05-17T18:04:10.028Z,15.82
2019-05-17T18:06:42.054Z,15.75
2019-05-17T18:09:13.826Z,15.63
2019-05-17T18:11:45.537Z,15.31
2019-05-17T18:14:17.293Z,15.41
2019-05-17T18:16:49.108Z,15.51
2019-05-17T18:19:20.508Z,15.33
2019-05-17T18:21:52.249Z,15.25
2019-05-17T18:24:23.986Z,15.33
2019-05-17T18:26:55.525Z,15.30
2019-05-17T18:29:27.119Z,15.32
2019-05-17T18:31:59.031Z,15.27
2019-05-17T18:34:30.673Z,15.35
2019-05-17T18:37:02.418Z,15.31
2019-05-17T18:39:34.216Z,15.29
2019-05-17T18:42:06.292Z,15.31
2019-05-17T18:44:38.032Z,15.30
2019-05-17T18:47:09.785Z,15.26
2019-05-17T18:49:41.553Z,15.22
2019-05-17T18:52:13.466Z,15.15
2019-05-17T18:54:45.314Z,15.14
2019-05-17T18:57:17.223Z,15.07
2019-05-17T18:59:48.793Z,14.93
2019-05-17T19:02:20.355Z,14.96
2019-05-17T19:04:52.297Z,14.99
2019-05-17T19:07:26.279Z,15.00
2019-05-17T19:09:58.093Z,14.90
2019-05-17T19:12:29.971Z,14.92
2019-05-17T19:15:01.758Z,14.73
2019-05-17T19:17:34.716Z,14.75
2019-05-17T19:20:06.959Z,14.40
2019-05-17T19:22:38.626Z,14.35
2019-05-17T19:25:11.127Z,14.40
2019-05-17T19:27:42.851Z,14.43
2019-05-17T19:30:15.142Z,14.24
2019-05-17T19:32:46.864Z,14.32
2019-05-17T19:35:18.684Z,14.33
2019-05-17T19:37:50.369Z,14.33
2019-05-17T19:40:22.536Z,14.29
2019-05-17T19:42:54.462Z,14.24
2019-05-17T19:45:26.364Z,14.21
2019-05-17T19:47:58.154Z,14.13
2019-05-17T19:50:29.655Z,13.63
2019-05-17T19:53:01.194Z,13.60
2019-05-17T19:55:33.456Z,13.87
2019-05-17T19:58:05.672Z,13.91
2019-05-17T20:00:37.680Z,13.96
2019-05-17T20:03:09.770Z,13.99
2019-05-17T20:05:41.930Z,13.75
2019-05-17T20:08:13.605Z,13.84
2019-05-17T20:10:46.353Z,13.82
2019-05-17T20:13:18.323Z,13.84
2019-05-17T20:15:49.927Z,13.74
2019-05-17T20:18:22.060Z,13.59
2019-05-17T20:20:53.899Z,13.33
2019-05-17T20:23:25.639Z,13.08
2019-05-17T20:25:57.339Z,12.88
2019-05-17T20:28:29.198Z,12.65
2019-05-17T20:31:00.863Z,12.54
2019-05-17T20:33:32.734Z,12.46
2019-05-17T20:36:04.737Z,12.49
2019-05-17T20:38:36.402Z,12.45
2019-05-17T20:41:07.889Z,12.42
2019-05-17T20:43:39.810Z,12.27
2019-05-17T20:46:11.755Z,12.14
2019-05-17T20:48:43.807Z,11.99
2019-05-17T20:51:15.877Z,11.87
2019-05-17T20:53:47.487Z,11.74
2019-05-17T20:56:31.949Z,11.73
2019-05-17T20:58:52.721Z,11.75
2019-05-17T21:01:24.482Z,11.85
2019-05-17T21:03:56.068Z,11.90
2019-05-17T21:06:27.720Z,11.87
2019-05-17T21:09:00.507Z,11.86
2019-05-17T21:11:35.694Z,11.72
2019-05-17T21:14:07.362Z,11.67
2019-05-17T21:16:39.196Z,11.36
2019-05-17T21:19:10.959Z,11.26
2019-05-17T21:21:42.652Z,11.19
2019-05-17T21:24:14.241Z,11.19
2019-05-17T21:26:45.973Z,11.15
2019-05-17T21:29:17.380Z,11.16
2019-05-17T21:31:49.204Z,11.18
2019-05-17T21:34:21.153Z,11.26
2019-05-17T21:36:52.869Z,11.48
2019-05-17T21:39:24.596Z,11.44
2019-05-17T21:41:56.470Z,11.39
2019-05-17T21:44:27.982Z,11.30
2019-05-17T21:47:04.703Z,11.16
2019-05-17T21:49:31.654Z,11.10
2019-05-17T21:52:03.441Z,10.99
2019-05-17T21:54:35.262Z,10.89
2019-05-17T21:57:07.231Z,10.80
2019-05-17T21:59:38.956Z,10.83
2019-05-17T22:02:10.682Z,10.86
2019-05-17T22:04:42.381Z,10.75
2019-05-17T22:07:14.544Z,10.70
2019-05-17T22:09:46.526Z,10.76
2019-05-17T22:12:18.495Z,10.75
2019-05-17T22:14:50.142Z,10.70
2019-05-17T22:17:22.375Z,10.69
2019-05-17T22:19:53.842Z,10.68
2019-05-17T22:22:25.544Z,10.75
2019-05-17T22:24:57.613Z,10.64
2019-05-17T22:27:30.145Z,10.59
2019-05-17T22:30:01.950Z,10.54
2019-05-17T22:32:33.756Z,10.47
2019-05-17T22:35:06.039Z,10.35
2019-05-17T22:37:37.731Z,10.35
2019-05-17T22:40:09.744Z,10.28
2019-05-17T22:42:41.346Z,10.24
2019-05-17T22:45:13.435Z,10.15
2019-05-17T22:47:45.207Z,10.11
2019-05-17T22:50:16.722Z,10.07
2019-05-17T22:52:48.486Z,10.09
2019-05-17T22:55:20.313Z,10.15
2019-05-17T22:57:52.262Z,10.19
2019-05-17T23:00:24.215Z,10.38
2019-05-17T23:02:55.994Z,10.52
2019-05-17T23:05:27.735Z,10.63
2019-05-17T23:07:59.926Z,10.80
2019-05-17T23:10:34.994Z,10.90
2019-05-17T23:13:04.955Z,10.98
2019-05-17T23:15:55.368Z,10.97
2019-05-17T23:18:27.235Z,10.82
2019-05-17T23:20:58.921Z,10.84
2019-05-17T23:23:30.621Z,10.71
2019-05-17T23:26:02.486Z,10.69
2019-05-17T23:28:34.186Z,10.48
2019-05-17T23:31:06.064Z,10.39
2019-05-17T23:33:37.845Z,10.28
2019-05-17T23:36:09.443Z,10.05
2019-05-17T23:38:41.110Z,9.97
2019-05-17T23:41:12.870Z,9.93
2019-05-17T23:43:44.749Z,9.83
2019-05-17T23:46:16.458Z,9.86
2019-05-17T23:48:48.127Z,9.89
2019-05-17T23:51:19.578Z,9.90
2019-05-17T23:53:51.262Z,9.94
2019-05-17T23:56:22.857Z,9.92
2019-05-17T23:58:54.739Z,9.95
